MBU2QV EDDP-LEPA
Flight info
| Callsign | MBU2QV |
|---|---|
| Flight time | 2h 13m |
| Altitude | 37999 |
| Route | NEVKO2N NEVKO Q243 BAMKI Z94 KOMIB DCT TEDGO N869 NATOR DCT LUTIX DCT BENOT DCT NEMOS DCT GEVEA DCT INCUS DCT BALSI DCT RETNO DCT TUPOX DCT MTG DCT DIVKO DCT VATIR N852 VERSO L129 LUNIK LUNIK2P |
| Aircraft | A20N/M-V/N |
Departure
| Time | 2026-05-04 15:20 |
|---|---|
| Airport | Leipzig/Halle Airport (EDDP) |
Arrival
| Time | 2026-05-04 17:34 |
|---|---|
| Airport | Palma de Mallorca Airport (LEPA) |
| Time | Latitude | Longitude | Altitude | Speed | Heading |
|---|---|---|---|---|---|
| 2026-05-04 14:45 | 51.41894 | 12.22110 | 444 ft | 0 kts | 15° |
| 2026-05-04 15:10 | 51.41891 | 12.22109 | 444 ft | 2 kts | 15° |
| 2026-05-04 15:11 | 51.41874 | 12.22101 | 436 ft | 3 kts | 16° |
| 2026-05-04 15:11 | 51.41854 | 12.22092 | 440 ft | 3 kts | 18° |
| 2026-05-04 15:11 | 51.41835 | 12.22081 | 446 ft | 3 kts | 23° |
| 2026-05-04 15:11 | 51.41817 | 12.22067 | 447 ft | 3 kts | 38° |
| 2026-05-04 15:12 | 51.41805 | 12.22046 | 432 ft | 2 kts | 86° |
| 2026-05-04 15:12 | 51.41805 | 12.22037 | 434 ft | 0 kts | 105° |
| 2026-05-04 15:15 | 51.41804 | 12.22044 | 432 ft | 2 kts | 105° |
| 2026-05-04 15:15 | 51.41791 | 12.22117 | 448 ft | 11 kts | 105° |
| 2026-05-04 15:15 | 51.41768 | 12.22255 | 451 ft | 14 kts | 105° |
| 2026-05-04 15:16 | 51.41713 | 12.22569 | 459 ft | 16 kts | 105° |
| 2026-05-04 15:16 | 51.41683 | 12.22746 | 463 ft | 17 kts | 105° |
| 2026-05-04 15:16 | 51.41615 | 12.23144 | 463 ft | 21 kts | 105° |
| 2026-05-04 15:17 | 51.41602 | 12.23371 | 463 ft | 22 kts | 85° |
| 2026-05-04 15:17 | 51.41625 | 12.23862 | 468 ft | 23 kts | 85° |
| 2026-05-04 15:17 | 51.41636 | 12.24116 | 471 ft | 22 kts | 85° |
| 2026-05-04 15:18 | 51.41648 | 12.24368 | 468 ft | 24 kts | 85° |
| 2026-05-04 15:18 | 51.41659 | 12.24622 | 474 ft | 17 kts | 85° |
| 2026-05-04 15:18 | 51.41634 | 12.24748 | 473 ft | 13 kts | 161° |
| 2026-05-04 15:19 | 51.41427 | 12.24685 | 471 ft | 14 kts | 194° |
| 2026-05-04 15:19 | 51.41369 | 12.24648 | 467 ft | 8 kts | 224° |
| 2026-05-04 15:19 | 51.41351 | 12.24488 | 470 ft | 8 kts | 265° |
| 2026-05-04 15:20 | 51.41340 | 12.24274 | 471 ft | 47 kts | 265° |
| 2026-05-04 15:20 | 51.41296 | 12.23379 | 464 ft | 112 kts | 265° |
| 2026-05-04 15:20 | 51.41225 | 12.21863 | 472 ft | 158 kts | 266° |
| 2026-05-04 15:20 | 51.41179 | 12.20197 | 1209 ft | 141 kts | 267° |
| 2026-05-04 15:21 | 51.41148 | 12.18666 | 1804 ft | 141 kts | 266° |
| 2026-05-04 15:21 | 51.41100 | 12.17126 | 2349 ft | 143 kts | 266° |
| 2026-05-04 15:21 | 51.40896 | 12.13569 | 3270 ft | 177 kts | 265° |
| 2026-05-04 15:22 | 51.40779 | 12.11501 | 3747 ft | 196 kts | 265° |
| 2026-05-04 15:22 | 51.40659 | 12.09183 | 4220 ft | 221 kts | 265° |
| 2026-05-04 15:22 | 51.40392 | 12.03803 | 5425 ft | 261 kts | 265° |
| 2026-05-04 15:23 | 51.40246 | 12.00883 | 6388 ft | 265 kts | 265° |
| 2026-05-04 15:23 | 51.40100 | 11.97921 | 7353 ft | 268 kts | 265° |
| 2026-05-04 15:23 | 51.39817 | 11.95016 | 8322 ft | 269 kts | 250° |
| 2026-05-04 15:23 | 51.38837 | 11.92479 | 9306 ft | 272 kts | 225° |
| 2026-05-04 15:24 | 51.35535 | 11.89184 | 10676 ft | 298 kts | 211° |
| 2026-05-04 15:24 | 51.31696 | 11.85671 | 11701 ft | 329 kts | 211° |
| 2026-05-04 15:25 | 51.29715 | 11.83843 | 12573 ft | 332 kts | 211° |
| 2026-05-04 15:25 | 51.27699 | 11.81981 | 13410 ft | 337 kts | 211° |
| 2026-05-04 15:25 | 51.25671 | 11.80074 | 14211 ft | 340 kts | 214° |
| 2026-05-04 15:26 | 51.21885 | 11.75455 | 15674 ft | 347 kts | 219° |
| 2026-05-04 15:26 | 51.19976 | 11.73054 | 16410 ft | 351 kts | 219° |
| 2026-05-04 15:26 | 51.16116 | 11.68230 | 17840 ft | 359 kts | 219° |
| 2026-05-04 15:27 | 51.14142 | 11.65773 | 18516 ft | 362 kts | 219° |
| 2026-05-04 15:27 | 51.10133 | 11.60788 | 19766 ft | 368 kts | 219° |
| 2026-05-04 15:28 | 51.06058 | 11.55736 | 21007 ft | 375 kts | 219° |
| 2026-05-04 15:28 | 51.03994 | 11.53181 | 21619 ft | 378 kts | 219° |
| 2026-05-04 15:28 | 50.99839 | 11.48044 | 22807 ft | 384 kts | 219° |
| 2026-05-04 15:29 | 50.97721 | 11.45431 | 23391 ft | 387 kts | 219° |
| 2026-05-04 15:30 | 50.89125 | 11.34858 | 25496 ft | 394 kts | 219° |
| 2026-05-04 15:30 | 50.83297 | 11.25722 | 26920 ft | 399 kts | 233° |
| 2026-05-04 15:31 | 50.79974 | 11.18796 | 27797 ft | 403 kts | 233° |
| 2026-05-04 15:31 | 50.78269 | 11.15277 | 28226 ft | 405 kts | 232° |
| 2026-05-04 15:32 | 50.73022 | 11.04699 | 29408 ft | 411 kts | 228° |
| 2026-05-04 15:32 | 50.68786 | 10.98662 | 30129 ft | 417 kts | 217° |
| 2026-05-04 15:33 | 50.63986 | 10.93436 | 30755 ft | 421 kts | 216° |
| 2026-05-04 15:34 | 50.56743 | 10.85516 | 31923 ft | 422 kts | 217° |
| 2026-05-04 15:34 | 50.54336 | 10.82888 | 32331 ft | 421 kts | 217° |
| 2026-05-04 15:34 | 50.49567 | 10.77691 | 33161 ft | 419 kts | 217° |
| 2026-05-04 15:35 | 50.44797 | 10.72511 | 33951 ft | 416 kts | 217° |
| 2026-05-04 15:35 | 50.42414 | 10.69928 | 34276 ft | 416 kts | 217° |
| 2026-05-04 15:35 | 50.40040 | 10.67353 | 34554 ft | 415 kts | 217° |
| 2026-05-04 15:36 | 50.35289 | 10.62206 | 35106 ft | 415 kts | 217° |
| 2026-05-04 15:36 | 50.32928 | 10.59654 | 35379 ft | 415 kts | 217° |
| 2026-05-04 15:36 | 50.30659 | 10.57208 | 35619 ft | 415 kts | 217° |
| 2026-05-04 15:37 | 50.28311 | 10.54684 | 35866 ft | 415 kts | 216° |
| 2026-05-04 15:37 | 50.25932 | 10.52132 | 36111 ft | 415 kts | 216° |
| 2026-05-04 15:37 | 50.21328 | 10.46599 | 36231 ft | 421 kts | 225° |
| 2026-05-04 15:38 | 50.19263 | 10.43348 | 36350 ft | 423 kts | 227° |
| 2026-05-04 15:38 | 50.17220 | 10.40043 | 36553 ft | 423 kts | 227° |
| 2026-05-04 15:38 | 50.15172 | 10.36754 | 36768 ft | 423 kts | 227° |
| 2026-05-04 15:38 | 50.13117 | 10.33470 | 36982 ft | 423 kts | 226° |
| 2026-05-04 15:39 | 50.11053 | 10.30205 | 37181 ft | 422 kts | 225° |
| 2026-05-04 15:39 | 50.08856 | 10.27166 | 37378 ft | 423 kts | 220° |
| 2026-05-04 15:39 | 50.04000 | 10.22088 | 37749 ft | 425 kts | 210° |
| 2026-05-04 15:40 | 50.01350 | 10.20051 | 37942 ft | 426 kts | 206° |
| 2026-05-04 15:40 | 49.95932 | 10.16333 | 37972 ft | 425 kts | 206° |
| 2026-05-04 15:41 | 49.90539 | 10.12596 | 37969 ft | 424 kts | 206° |
| 2026-05-04 15:41 | 49.85146 | 10.08862 | 37972 ft | 424 kts | 206° |
| 2026-05-04 15:42 | 49.79788 | 10.05160 | 37971 ft | 425 kts | 206° |
| 2026-05-04 15:42 | 49.74392 | 10.01442 | 37972 ft | 424 kts | 206° |
| 2026-05-04 15:43 | 49.68995 | 9.97733 | 37977 ft | 424 kts | 206° |
| 2026-05-04 15:43 | 49.63599 | 9.94034 | 37983 ft | 424 kts | 206° |
| 2026-05-04 15:44 | 49.58237 | 9.90368 | 37980 ft | 424 kts | 206° |
| 2026-05-04 15:44 | 49.52835 | 9.86682 | 37985 ft | 425 kts | 206° |
| 2026-05-04 15:45 | 49.47429 | 9.83004 | 37984 ft | 425 kts | 206° |
| 2026-05-04 15:45 | 49.42024 | 9.79335 | 37983 ft | 425 kts | 205° |
| 2026-05-04 15:46 | 49.36607 | 9.75667 | 37986 ft | 426 kts | 205° |
| 2026-05-04 15:46 | 49.31222 | 9.72029 | 37991 ft | 426 kts | 205° |
| 2026-05-04 15:47 | 49.25794 | 9.68371 | 37968 ft | 426 kts | 205° |
| 2026-05-04 15:47 | 49.20365 | 9.64720 | 37964 ft | 426 kts | 205° |
| 2026-05-04 15:48 | 49.14924 | 9.61072 | 37972 ft | 428 kts | 205° |
| 2026-05-04 15:48 | 49.06781 | 9.55628 | 37984 ft | 428 kts | 205° |
| 2026-05-04 15:49 | 49.01333 | 9.51996 | 37963 ft | 427 kts | 205° |
| 2026-05-04 15:49 | 48.95883 | 9.48371 | 37980 ft | 427 kts | 205° |
| 2026-05-04 15:50 | 48.90434 | 9.44755 | 37980 ft | 428 kts | 205° |
| 2026-05-04 15:50 | 48.84984 | 9.41148 | 37975 ft | 427 kts | 205° |
| 2026-05-04 15:51 | 48.79573 | 9.37575 | 37971 ft | 427 kts | 205° |
| 2026-05-04 15:51 | 48.74133 | 9.33992 | 37967 ft | 426 kts | 205° |
| 2026-05-04 15:52 | 48.68696 | 9.30419 | 37953 ft | 426 kts | 205° |
| 2026-05-04 15:52 | 48.63495 | 9.26224 | 37967 ft | 423 kts | 217° |
| 2026-05-04 15:53 | 48.59218 | 9.20250 | 37965 ft | 423 kts | 231° |
| 2026-05-04 15:53 | 48.55772 | 9.13051 | 37974 ft | 423 kts | 234° |
| 2026-05-04 15:54 | 48.52366 | 9.05816 | 37975 ft | 423 kts | 234° |
| 2026-05-04 15:54 | 48.48949 | 8.98613 | 37967 ft | 422 kts | 234° |
| 2026-05-04 15:55 | 48.45532 | 8.91428 | 37966 ft | 421 kts | 234° |
| 2026-05-04 15:55 | 48.42136 | 8.84304 | 37958 ft | 421 kts | 233° |
| 2026-05-04 15:56 | 48.38715 | 8.77144 | 37958 ft | 421 kts | 233° |
| 2026-05-04 15:56 | 48.35291 | 8.69999 | 37958 ft | 421 kts | 233° |
| 2026-05-04 15:57 | 48.31862 | 8.62860 | 37953 ft | 421 kts | 233° |
| 2026-05-04 15:57 | 48.28447 | 8.55769 | 37961 ft | 423 kts | 233° |
| 2026-05-04 15:58 | 48.24994 | 8.48618 | 37982 ft | 423 kts | 233° |
| 2026-05-04 15:58 | 48.21535 | 8.41472 | 37969 ft | 423 kts | 233° |
| 2026-05-04 15:59 | 48.17851 | 8.34617 | 37969 ft | 422 kts | 226° |
| 2026-05-04 15:59 | 48.13454 | 8.28794 | 37975 ft | 422 kts | 217° |
| 2026-05-04 16:00 | 48.08571 | 8.23991 | 37975 ft | 423 kts | 213° |
| 2026-05-04 16:00 | 48.03617 | 8.19227 | 37994 ft | 424 kts | 213° |
| 2026-05-04 16:01 | 47.98659 | 8.14457 | 37997 ft | 424 kts | 213° |
| 2026-05-04 16:01 | 47.93693 | 8.09692 | 37982 ft | 425 kts | 213° |
| 2026-05-04 16:02 | 47.88756 | 8.04968 | 37994 ft | 425 kts | 213° |
| 2026-05-04 16:03 | 47.81286 | 7.97843 | 38000 ft | 425 kts | 213° |
| 2026-05-04 16:03 | 47.76301 | 7.93102 | 37990 ft | 425 kts | 213° |
| 2026-05-04 16:04 | 47.71310 | 7.88366 | 37991 ft | 426 kts | 213° |
| 2026-05-04 16:04 | 47.63853 | 7.81309 | 38017 ft | 426 kts | 213° |
| 2026-05-04 16:05 | 47.58853 | 7.76591 | 38018 ft | 426 kts | 213° |
| 2026-05-04 16:06 | 47.51367 | 7.69548 | 38022 ft | 426 kts | 213° |
| 2026-05-04 16:07 | 47.41394 | 7.60203 | 38022 ft | 425 kts | 213° |
| 2026-05-04 16:08 | 47.31409 | 7.50889 | 38038 ft | 424 kts | 214° |
| 2026-05-04 16:09 | 47.19031 | 7.39206 | 38052 ft | 423 kts | 218° |
| 2026-05-04 16:10 | 47.10937 | 7.26847 | 38040 ft | 420 kts | 232° |
| 2026-05-04 16:11 | 47.03692 | 7.13469 | 38056 ft | 420 kts | 232° |
| 2026-05-04 16:12 | 46.92697 | 6.93441 | 38049 ft | 420 kts | 230° |
| 2026-05-04 16:13 | 46.84027 | 6.82103 | 38051 ft | 420 kts | 220° |
| 2026-05-04 16:14 | 46.74969 | 6.71341 | 38054 ft | 420 kts | 220° |
| 2026-05-04 16:16 | 46.63687 | 6.57991 | 38060 ft | 419 kts | 221° |
| 2026-05-04 16:17 | 46.52373 | 6.44680 | 38070 ft | 418 kts | 221° |
| 2026-05-04 16:18 | 46.43366 | 6.34136 | 38060 ft | 416 kts | 221° |
| 2026-05-04 16:19 | 46.32111 | 6.21024 | 38048 ft | 414 kts | 221° |
| 2026-05-04 16:20 | 46.24909 | 6.14234 | 38044 ft | 419 kts | 206° |
| 2026-05-04 16:20 | 46.19297 | 6.11838 | 38036 ft | 425 kts | 193° |
| 2026-05-04 16:22 | 46.04668 | 6.08626 | 38035 ft | 426 kts | 193° |
| 2026-05-04 16:23 | 45.87120 | 6.04744 | 38045 ft | 427 kts | 193° |
| 2026-05-04 16:25 | 45.69532 | 6.00861 | 38052 ft | 428 kts | 193° |
| 2026-05-04 16:26 | 45.48996 | 5.96356 | 38042 ft | 427 kts | 193° |
| 2026-05-04 16:28 | 45.34565 | 5.91961 | 38018 ft | 424 kts | 197° |
| 2026-05-04 16:29 | 45.14424 | 5.85704 | 38013 ft | 425 kts | 197° |
| 2026-05-04 16:31 | 44.99965 | 5.81241 | 38013 ft | 425 kts | 197° |
| 2026-05-04 16:32 | 44.82724 | 5.75947 | 38020 ft | 422 kts | 197° |
| 2026-05-04 16:33 | 44.71325 | 5.72468 | 38016 ft | 419 kts | 197° |
| 2026-05-04 16:34 | 44.62771 | 5.69860 | 38015 ft | 419 kts | 197° |
| 2026-05-04 16:35 | 44.45689 | 5.64685 | 38013 ft | 418 kts | 197° |
| 2026-05-04 16:36 | 44.37242 | 5.61896 | 38027 ft | 415 kts | 202° |
| 2026-05-04 16:37 | 44.29203 | 5.57545 | 38014 ft | 412 kts | 206° |
| 2026-05-04 16:38 | 44.18557 | 5.51712 | 38025 ft | 412 kts | 205° |
| 2026-05-04 16:39 | 44.05168 | 5.44424 | 38031 ft | 413 kts | 205° |
| 2026-05-04 16:40 | 43.94521 | 5.38654 | 38019 ft | 412 kts | 205° |
| 2026-05-04 16:41 | 43.81221 | 5.31467 | 37998 ft | 410 kts | 205° |
| 2026-05-04 16:43 | 43.67990 | 5.24353 | 37989 ft | 409 kts | 205° |
| 2026-05-04 16:43 | 43.60036 | 5.20093 | 37987 ft | 408 kts | 205° |
| 2026-05-04 16:45 | 43.44179 | 5.11636 | 37992 ft | 409 kts | 205° |
| 2026-05-04 16:46 | 43.31859 | 5.02317 | 37987 ft | 404 kts | 217° |
| 2026-05-04 16:47 | 43.22638 | 4.93620 | 37965 ft | 403 kts | 217° |
| 2026-05-04 16:48 | 43.13383 | 4.84950 | 37949 ft | 403 kts | 217° |
| 2026-05-04 16:49 | 43.04071 | 4.76490 | 37936 ft | 404 kts | 212° |
| 2026-05-04 16:50 | 42.94219 | 4.69049 | 37933 ft | 405 kts | 212° |
| 2026-05-04 16:51 | 42.86877 | 4.63494 | 37937 ft | 404 kts | 211° |
| 2026-05-04 16:52 | 42.77044 | 4.56081 | 37926 ft | 404 kts | 211° |
| 2026-05-04 16:53 | 42.69658 | 4.50532 | 37918 ft | 404 kts | 211° |
| 2026-05-04 16:54 | 42.59830 | 4.43169 | 37914 ft | 405 kts | 211° |
| 2026-05-04 16:55 | 42.44975 | 4.32093 | 37911 ft | 407 kts | 211° |
| 2026-05-04 16:56 | 42.32581 | 4.22898 | 37910 ft | 408 kts | 211° |
| 2026-05-04 16:57 | 42.25101 | 4.17368 | 37911 ft | 409 kts | 211° |
| 2026-05-04 16:58 | 42.15125 | 4.10017 | 37909 ft | 410 kts | 211° |
| 2026-05-04 17:00 | 42.00087 | 3.98998 | 37903 ft | 412 kts | 211° |
| 2026-05-04 17:01 | 41.86702 | 3.92017 | 37897 ft | 420 kts | 193° |
| 2026-05-04 17:02 | 41.75187 | 3.89400 | 37900 ft | 422 kts | 193° |
| 2026-05-04 17:03 | 41.66498 | 3.87394 | 37900 ft | 423 kts | 193° |
| 2026-05-04 17:03 | 41.57787 | 3.85390 | 37903 ft | 424 kts | 193° |
| 2026-05-04 17:04 | 41.46184 | 3.82730 | 37905 ft | 425 kts | 193° |
| 2026-05-04 17:05 | 41.34505 | 3.80062 | 37909 ft | 426 kts | 193° |
| 2026-05-04 17:06 | 41.25729 | 3.78064 | 37909 ft | 427 kts | 193° |
| 2026-05-04 17:07 | 41.18927 | 3.76520 | 37905 ft | 427 kts | 193° |
| 2026-05-04 17:07 | 41.11360 | 3.73712 | 37911 ft | 423 kts | 204° |
| 2026-05-04 17:08 | 41.03154 | 3.69433 | 37904 ft | 419 kts | 204° |
| 2026-05-04 17:09 | 40.97836 | 3.66698 | 37904 ft | 411 kts | 204° |
| 2026-05-04 17:09 | 40.92484 | 3.63949 | 37906 ft | 414 kts | 204° |
| 2026-05-04 17:10 | 40.87115 | 3.61196 | 37572 ft | 415 kts | 204° |
| 2026-05-04 17:10 | 40.79871 | 3.57486 | 35395 ft | 426 kts | 203° |
| 2026-05-04 17:11 | 40.77103 | 3.56070 | 34547 ft | 428 kts | 203° |
| 2026-05-04 17:11 | 40.73420 | 3.54190 | 33398 ft | 429 kts | 202° |
| 2026-05-04 17:11 | 40.67805 | 3.51333 | 31378 ft | 436 kts | 203° |
| 2026-05-04 17:12 | 40.65926 | 3.50379 | 30706 ft | 439 kts | 203° |
| 2026-05-04 17:12 | 40.60264 | 3.47504 | 29296 ft | 432 kts | 203° |
| 2026-05-04 17:13 | 40.51987 | 3.43325 | 27267 ft | 418 kts | 202° |
| 2026-05-04 17:14 | 40.43782 | 3.39857 | 25318 ft | 411 kts | 193° |
| 2026-05-04 17:14 | 40.40934 | 3.39492 | 24717 ft | 411 kts | 185° |
| 2026-05-04 17:14 | 40.35291 | 3.39757 | 23581 ft | 406 kts | 181° |
| 2026-05-04 17:15 | 40.32480 | 3.39911 | 22920 ft | 402 kts | 181° |
| 2026-05-04 17:15 | 40.26924 | 3.40213 | 21607 ft | 396 kts | 181° |
| 2026-05-04 17:16 | 40.21459 | 3.40516 | 20363 ft | 390 kts | 181° |
| 2026-05-04 17:16 | 40.13408 | 3.40987 | 18564 ft | 382 kts | 182° |
| 2026-05-04 17:17 | 40.10766 | 3.41129 | 17958 ft | 379 kts | 182° |
| 2026-05-04 17:17 | 40.03112 | 3.41609 | 16019 ft | 354 kts | 181° |
| 2026-05-04 17:18 | 40.00680 | 3.41739 | 15403 ft | 346 kts | 181° |
| 2026-05-04 17:18 | 39.95978 | 3.41982 | 14202 ft | 332 kts | 182° |
| 2026-05-04 17:19 | 39.91447 | 3.42231 | 12952 ft | 320 kts | 182° |
| 2026-05-04 17:19 | 39.87096 | 3.42467 | 11699 ft | 310 kts | 180° |
| 2026-05-04 17:20 | 39.82819 | 3.42727 | 10467 ft | 301 kts | 182° |
| 2026-05-04 17:20 | 39.78727 | 3.42915 | 9379 ft | 289 kts | 182° |
| 2026-05-04 17:20 | 39.76741 | 3.43024 | 8868 ft | 282 kts | 181° |
| 2026-05-04 17:21 | 39.72927 | 3.42941 | 7865 ft | 265 kts | 200° |
| 2026-05-04 17:21 | 39.70298 | 3.39936 | 6891 ft | 259 kts | 246° |
| 2026-05-04 17:22 | 39.69947 | 3.37663 | 6406 ft | 260 kts | 269° |
| 2026-05-04 17:22 | 39.70037 | 3.35322 | 5934 ft | 260 kts | 270° |
| 2026-05-04 17:23 | 39.70276 | 3.28290 | 4984 ft | 254 kts | 270° |
| 2026-05-04 17:23 | 39.70344 | 3.25985 | 4965 ft | 256 kts | 270° |
| 2026-05-04 17:23 | 39.70481 | 3.21360 | 4963 ft | 257 kts | 270° |
| 2026-05-04 17:24 | 39.70550 | 3.19077 | 4959 ft | 247 kts | 270° |
| 2026-05-04 17:24 | 39.70735 | 3.13123 | 4990 ft | 187 kts | 269° |
| 2026-05-04 17:25 | 39.70787 | 3.11544 | 4964 ft | 162 kts | 268° |
| 2026-05-04 17:25 | 39.70654 | 3.08744 | 4970 ft | 156 kts | 251° |
| 2026-05-04 17:26 | 39.69687 | 3.06246 | 4977 ft | 156 kts | 238° |
| 2026-05-04 17:26 | 39.68010 | 3.02683 | 4632 ft | 155 kts | 238° |
| 2026-05-04 17:27 | 39.66888 | 3.00291 | 4232 ft | 155 kts | 238° |
| 2026-05-04 17:27 | 39.65771 | 2.97921 | 3848 ft | 154 kts | 237° |
| 2026-05-04 17:28 | 39.64650 | 2.95534 | 3449 ft | 160 kts | 238° |
| 2026-05-04 17:29 | 39.62966 | 2.91947 | 2839 ft | 156 kts | 238° |
| 2026-05-04 17:29 | 39.61298 | 2.88401 | 2230 ft | 152 kts | 237° |
| 2026-05-04 17:30 | 39.59658 | 2.84918 | 1623 ft | 138 kts | 236° |
| 2026-05-04 17:31 | 39.58814 | 2.82924 | 1302 ft | 122 kts | 234° |
| 2026-05-04 17:31 | 39.57443 | 2.80142 | 830 ft | 122 kts | 232° |
| 2026-05-04 17:32 | 39.56572 | 2.78285 | 469 ft | 116 kts | 237° |
| 2026-05-04 17:33 | 39.55283 | 2.75586 | 30 ft | 116 kts | 238° |
| 2026-05-04 17:33 | 39.54934 | 2.74885 | 26 ft | 65 kts | 237° |
| 2026-05-04 17:34 | 39.54804 | 2.74363 | 28 ft | 9 kts | 276° |
| 2026-05-04 17:34 | 39.54805 | 2.74351 | 28 ft | 0 kts | 274° |
| 2026-05-04 17:37 | 39.54806 | 2.74317 | 28 ft | 6 kts | 272° |
| 2026-05-04 17:37 | 39.54804 | 2.74246 | 28 ft | 9 kts | 266° |
| 2026-05-04 17:37 | 39.54794 | 2.74156 | 29 ft | 9 kts | 257° |
| 2026-05-04 17:37 | 39.54775 | 2.74089 | 29 ft | 8 kts | 242° |
| 2026-05-04 17:38 | 39.54741 | 2.74021 | 29 ft | 10 kts | 236° |
| 2026-05-04 17:38 | 39.54698 | 2.73937 | 30 ft | 12 kts | 236° |
| 2026-05-04 17:38 | 39.54650 | 2.73839 | 31 ft | 14 kts | 238° |
| 2026-05-04 17:38 | 39.54604 | 2.73741 | 31 ft | 8 kts | 239° |
| 2026-05-04 17:39 | 39.54638 | 2.73616 | 31 ft | 12 kts | 338° |
| 2026-05-04 17:39 | 39.54705 | 2.73574 | 31 ft | 8 kts | 330° |
| 2026-05-04 17:39 | 39.54734 | 2.73599 | 30 ft | 4 kts | 53° |
| 2026-05-04 17:40 | 39.54748 | 2.73626 | 30 ft | 2 kts | 59° |
| 2026-05-04 17:40 | 39.54753 | 2.73637 | 30 ft | 0 kts | 60° |